KPIB/PIB METAR and TAF weather

Enter ICAO airport designator
Station Type Date Time Source
KPIB METAR 2019/11/18 03:56 UTC NOAA

KPIB 180356Z AUTO 00000KT 10SM CLR 04/03 A2998 RMK AO2 SLP152 T00440033


Station Type Date Time Source
KPIB Decoded METAR 2019/11/18 03:56 UTC NOAA

Hattiesburg/Laurel, Hattiesburg-Laurel Regional Airport, MS, United States (KPIB) 31-28N 089-20W
Nov 17, 2019 - 10:56 PM EST / 2019.11.18 0356 UTC
Wind: Calm:0
Visibility: 10 mile(s):0
Sky conditions: clear
Temperature: 39.9 F (4.4 C)
Dew Point: 37.9 F (3.3 C)
Relative Humidity: 92%
Pressure (altimeter): 29.98 in. Hg (1015 hPa)
ob: KPIB 180356Z AUTO 00000KT 10SM CLR 04/03 A2998 RMK AO2 SLP152 T00440033
cycle: 4

Station Type Date Time Source
KPIB TAF 2019/11/17 18:33 UTC NOAA

TAF KPIB 171731Z 1718/1818 29004KT P6SM FEW250

Example: see airport list